Time;durP1;ratioP1;P1;durP2;ratioP2;P2;SDS_P1;SDS_P2;PMS_P1;PMS_P2;Temp;Humidity;BMP_temperature;BMP_pressure;BME280_temperature;BME280_humidity;BME280_pressure;Samples;Min_cycle;Max_cycle;Signal;HPM_P1;HPM_P2
2023/04/17 00:01:29;;;;;;;2.80;2.05;;;21.10;71.20;;;;;;5014114;28;20327;-61
2023/04/17 00:03:56;;;;;;;2.45;2.25;;;21.10;71.10;;;;;;5016898;28;20259;-61
2023/04/17 00:06:23;;;;;;;2.47;2.20;;;21.00;71.00;;;;;;5010018;28;20205;-61
2023/04/17 00:08:50;;;;;;;2.65;2.22;;;21.00;71.10;;;;;;5017463;28;20528;-61
2023/04/17 00:11:17;;;;;;;5.22;2.13;;;21.00;71.00;;;;;;5019965;28;20189;-62
2023/04/17 00:13:44;;;;;;;2.53;2.30;;;21.00;71.10;;;;;;5017308;28;20204;-62
2023/04/17 00:16:12;;;;;;;3.00;2.53;;;21.00;71.00;;;;;;5018142;28;20224;-61
2023/04/17 00:18:39;;;;;;;5.97;2.30;;;21.00;71.10;;;;;;5019949;28;20255;-62
2023/04/17 00:21:06;;;;;;;2.03;1.90;;;21.00;71.20;;;;;;5028351;28;20204;-62
2023/04/17 00:23:32;;;;;;;2.85;2.50;;;21.00;71.20;;;;;;5015234;28;20224;-61
2023/04/17 00:25:59;;;;;;;3.40;1.90;;;21.00;71.10;;;;;;5018638;28;20254;-61
2023/04/17 00:28:26;;;;;;;2.45;2.22;;;21.00;71.20;;;;;;5019520;28;20251;-61
2023/04/17 00:30:52;;;;;;;1.75;1.65;;;21.00;71.80;;;;;;5014593;28;20652;-61
2023/04/17 00:33:21;;;;;;;2.63;2.33;;;21.00;71.20;;;;;;5023636;28;20250;-62
2023/04/17 00:35:47;;;;;;;2.53;2.33;;;20.90;71.10;;;;;;5017026;28;20212;-62
2023/04/17 00:38:14;;;;;;;2.75;2.30;;;20.90;71.10;;;;;;5019751;28;20201;-62
2023/04/17 00:40:41;;;;;;;2.30;2.10;;;20.90;71.20;;;;;;5012918;28;20208;-62
2023/04/17 00:43:08;;;;;;;2.25;2.05;;;20.90;71.20;;;;;;5023809;28;20207;-61
2023/04/17 00:45:35;;;;;;;2.60;2.40;;;20.90;71.10;;;;;;5008020;28;20205;-61
2023/04/17 00:48:04;;;;;;;2.75;2.45;;;20.90;71.10;;;;;;5020391;28;20204;-61
2023/04/17 00:50:33;;;;;;;2.20;2.00;;;20.90;71.10;;;;;;5020665;28;20231;-62
2023/04/17 00:53:00;;;;;;;3.30;2.08;;;20.90;71.20;;;;;;5013851;28;20212;-60
2023/04/17 00:55:28;;;;;;;2.22;2.03;;;20.90;71.30;;;;;;5022300;28;20656;-60
2023/04/17 00:57:55;;;;;;;3.92;2.58;;;20.80;71.10;;;;;;5021629;28;20201;-60
2023/04/17 01:00:23;;;;;;;1.67;1.58;;;20.90;71.20;;;;;;5017599;28;20201;-61
2023/04/17 01:02:50;;;;;;;2.22;2.13;;;20.80;71.10;;;;;;5020179;28;20192;-60
2023/04/17 01:05:17;;;;;;;2.60;2.22;;;20.80;71.20;;;;;;5020846;28;20192;-60
2023/04/17 01:07:46;;;;;;;2.47;2.25;;;20.80;71.20;;;;;;5020874;28;20204;-60
2023/04/17 01:10:12;;;;;;;3.20;2.00;;;20.80;71.20;;;;;;5017154;28;20196;-61
2023/04/17 01:12:40;;;;;;;2.00;1.90;;;20.80;71.20;;;;;;5019838;28;20197;-60
2023/04/17 01:15:07;;;;;;;2.72;2.00;;;20.80;71.20;;;;;;5012280;28;20195;-60
2023/04/17 01:17:34;;;;;;;2.33;1.70;;;20.80;71.20;;;;;;5018496;28;20718;-60
2023/04/17 01:20:00;;;;;;;2.15;1.98;;;20.80;71.20;;;;;;5017535;28;20837;-60
2023/04/17 01:22:27;;;;;;;2.60;2.40;;;20.80;71.20;;;;;;5009113;28;20708;-60
2023/04/17 01:24:55;;;;;;;1.90;1.80;;;20.70;71.10;;;;;;5015308;28;20200;-60
2023/04/17 01:27:22;;;;;;;2.65;2.30;;;20.70;71.10;;;;;;5010270;28;20211;-60
2023/04/17 01:29:48;;;;;;;3.55;2.40;;;20.70;71.10;;;;;;5009133;28;20287;-60
2023/04/17 01:32:16;;;;;;;2.45;1.92;;;20.70;71.10;;;;;;5013545;28;20196;-60
2023/04/17 01:34:42;;;;;;;2.13;1.92;;;20.70;71.10;;;;;;5013229;28;20197;-60
2023/04/17 01:37:09;;;;;;;2.05;1.85;;;20.70;71.10;;;;;;5014582;28;20216;-60
2023/04/17 01:39:36;;;;;;;2.15;1.95;;;20.70;71.10;;;;;;5015590;28;20211;-60
2023/04/17 01:42:05;;;;;;;2.20;2.00;;;20.70;71.10;;;;;;5019795;28;20275;-61
2023/04/17 01:44:42;;;;;;;1.88;1.70;;;20.70;71.10;;;;;;5071179;27;20563;-62
2023/04/17 01:47:08;;;;;;;2.95;2.60;;;20.70;71.10;;;;;;5084045;28;20193;-62
2023/04/17 01:49:35;;;;;;;2.75;2.55;;;20.70;71.10;;;;;;5074491;28;20724;-62
2023/04/17 01:52:02;;;;;;;2.20;2.00;;;20.70;71.10;;;;;;5073318;28;20195;-62
2023/04/17 01:54:28;;;;;;;1.98;1.77;;;20.70;71.10;;;;;;5082266;28;20206;-62
2023/04/17 01:56:55;;;;;;;2.22;2.03;;;20.60;71.00;;;;;;5075573;28;20264;-61
2023/04/17 01:59:22;;;;;;;2.20;2.00;;;20.60;71.00;;;;;;5072312;28;20194;-62
2023/04/17 02:01:51;;;;;;;1.67;1.58;;;20.70;71.10;;;;;;5087289;28;20265;-62
2023/04/17 02:04:17;;;;;;;2.40;2.20;;;20.60;70.90;;;;;;5081812;28;20220;-59
2023/04/17 02:06:44;;;;;;;2.30;2.10;;;20.60;71.00;;;;;;5086486;28;20194;-60
2023/04/17 02:09:11;;;;;;;3.10;2.90;;;20.60;71.00;;;;;;5078010;28;20190;-63
2023/04/17 02:11:37;;;;;;;1.75;1.65;;;20.70;71.20;;;;;;5082327;28;20281;-62
2023/04/17 02:14:04;;;;;;;2.90;2.60;;;20.70;71.20;;;;;;5072544;28;20202;-62
2023/04/17 02:16:31;;;;;;;2.40;2.20;;;20.60;70.90;;;;;;5075559;28;20202;-62
2023/04/17 02:18:59;;;;;;;2.20;2.00;;;20.60;71.00;;;;;;5088042;28;20286;-62
2023/04/17 02:21:27;;;;;;;1.90;1.65;;;20.60;71.70;;;;;;5085981;28;20191;-62
2023/04/17 02:23:53;;;;;;;2.45;2.25;;;20.60;71.00;;;;;;5066244;28;20665;-61
2023/04/17 02:26:20;;;;;;;3.00;1.80;;;20.60;70.90;;;;;;5075936;28;20713;-61
2023/04/17 02:28:47;;;;;;;2.50;2.28;;;20.60;70.90;;;;;;5070589;28;20216;-60
2023/04/17 02:31:15;;;;;;;2.45;1.90;;;20.60;71.00;;;;;;5072992;28;20195;-62
2023/04/17 02:33:41;;;;;;;1.80;1.70;;;20.60;70.90;;;;;;5069842;28;20550;-61
2023/04/17 02:36:10;;;;;;;2.38;2.17;;;20.60;71.00;;;;;;5081243;28;20186;-59
2023/04/17 02:38:36;;;;;;;4.15;2.47;;;20.60;71.00;;;;;;5078641;28;20214;-61
2023/04/17 02:41:04;;;;;;;1.75;1.65;;;20.60;70.90;;;;;;5074943;28;20193;-61
2023/04/17 02:43:30;;;;;;;2.22;2.13;;;20.60;71.00;;;;;;5074385;28;20657;-61
2023/04/17 02:45:57;;;;;;;2.42;2.22;;;20.50;70.80;;;;;;5062868;28;20245;-62
2023/04/17 02:48:24;;;;;;;1.90;1.80;;;20.60;70.90;;;;;;5072405;28;20197;-62
2023/04/17 02:50:50;;;;;;;2.45;2.25;;;20.60;70.90;;;;;;5070308;28;20221;-61
2023/04/17 02:53:18;;;;;;;2.70;2.00;;;20.50;70.80;;;;;;5075678;28;20190;-61
2023/04/17 02:55:45;;;;;;;1.63;1.52;;;20.50;70.70;;;;;;5060085;28;20192;-61
2023/04/17 02:58:12;;;;;;;2.03;1.85;;;20.50;70.80;;;;;;5049992;28;20201;-62
2023/04/17 03:00:39;;;;;;;2.10;1.90;;;20.50;70.80;;;;;;5054293;28;21936;-62
2023/04/17 03:03:06;;;;;;;2.25;2.05;;;20.50;70.80;;;;;;5056345;28;20717;-61
2023/04/17 03:05:33;;;;;;;2.45;1.90;;;20.50;70.70;;;;;;5056633;28;20194;-62
2023/04/17 03:08:00;;;;;;;2.53;2.33;;;20.50;70.70;;;;;;5058870;28;20192;-61
2023/04/17 03:10:28;;;;;;;2.00;1.80;;;20.50;70.80;;;;;;5061523;28;20541;-62
2023/04/17 03:12:55;;;;;;;2.22;2.08;;;20.50;70.80;;;;;;5061376;28;20206;-61
2023/04/17 03:15:21;;;;;;;1.98;1.88;;;20.50;71.30;;;;;;5062886;28;20282;-62
2023/04/17 03:17:48;;;;;;;2.20;1.85;;;20.50;70.70;;;;;;5072053;28;20203;-61
2023/04/17 03:20:16;;;;;;;2.90;2.60;;;20.50;70.80;;;;;;5065855;28;20252;-61
2023/04/17 03:22:43;;;;;;;2.83;2.20;;;20.50;70.80;;;;;;5069284;28;20672;-62
2023/04/17 03:25:10;;;;;;;2.22;2.03;;;20.50;70.80;;;;;;5068107;28;20202;-61
2023/04/17 03:27:38;;;;;;;2.10;1.90;;;20.50;70.80;;;;;;5058762;28;20287;-62
2023/04/17 03:30:06;;;;;;;2.60;2.33;;;20.40;70.70;;;;;;5055600;28;20191;-61
2023/04/17 03:32:33;;;;;;;1.92;1.80;;;20.50;70.80;;;;;;5052117;28;20291;-62
2023/04/17 03:34:59;;;;;;;2.35;2.15;;;20.40;70.70;;;;;;5055011;28;20229;-62
2023/04/17 03:37:26;;;;;;;2.08;1.88;;;20.40;71.40;;;;;;5058328;28;20194;-62
2023/04/17 03:39:54;;;;;;;2.50;2.30;;;20.40;70.60;;;;;;5053744;28;20312;-61
2023/04/17 03:42:21;;;;;;;2.00;1.90;;;20.40;70.70;;;;;;5054866;28;20195;-61
2023/04/17 03:44:49;;;;;;;2.40;2.20;;;20.40;70.90;;;;;;5056814;28;20219;-61
2023/04/17 03:47:15;;;;;;;2.00;1.80;;;20.40;70.60;;;;;;5065572;28;20260;-62
2023/04/17 03:49:42;;;;;;;2.63;1.90;;;20.40;70.70;;;;;;5060204;28;20703;-61
2023/04/17 03:52:09;;;;;;;2.00;1.90;;;20.40;70.70;;;;;;5062304;28;20199;-61
2023/04/17 03:54:35;;;;;;;3.05;2.38;;;20.40;70.70;;;;;;5063135;28;20207;-62
2023/04/17 03:57:02;;;;;;;1.95;1.75;;;20.40;70.70;;;;;;5058402;28;20287;-61
2023/04/17 03:59:30;;;;;;;2.00;1.80;;;20.40;71.00;;;;;;5067882;28;20201;-62
2023/04/17 04:01:58;;;;;;;2.58;2.38;;;20.40;70.70;;;;;;5056922;28;20293;-61
2023/04/17 04:04:25;;;;;;;2.47;2.10;;;20.40;70.70;;;;;;5061360;28;20220;-61
2023/04/17 04:06:53;;;;;;;2.00;1.80;;;20.40;70.70;;;;;;5064448;28;20598;-61
2023/04/17 04:09:20;;;;;;;2.47;1.85;;;20.40;70.60;;;;;;5056183;28;20202;-61
2023/04/17 04:11:47;;;;;;;2.08;1.98;;;20.40;70.60;;;;;;5045296;28;20195;-61
2023/04/17 04:14:14;;;;;;;2.00;1.90;;;20.40;71.40;;;;;;5055327;28;20204;-61
2023/04/17 04:16:41;;;;;;;2.10;1.90;;;20.40;70.70;;;;;;5064173;28;20217;-61
2023/04/17 04:19:09;;;;;;;2.25;2.10;;;20.40;70.60;;;;;;5062877;28;20635;-61
2023/04/17 04:21:36;;;;;;;2.30;2.10;;;20.40;70.60;;;;;;5066315;28;20339;-62
2023/04/17 04:24:03;;;;;;;1.98;1.80;;;20.30;70.60;;;;;;5060173;28;20215;-61
2023/04/17 04:26:29;;;;;;;2.25;2.05;;;20.30;70.60;;;;;;5063567;28;20203;-61
2023/04/17 04:28:58;;;;;;;2.40;2.20;;;20.30;70.50;;;;;;5057935;28;20277;-61
2023/04/17 04:31:28;;;;;;;2.20;2.00;;;20.40;70.70;;;;;;5056557;28;20284;-61
2023/04/17 04:33:56;;;;;;;2.70;2.50;;;20.30;70.60;;;;;;5057401;28;20700;-62
2023/04/17 04:36:28;;;;;;;2.72;2.08;;;20.30;70.50;;;;;;5056534;28;20264;-61
2023/04/17 04:38:58;;;;;;;3.33;1.90;;;20.30;70.40;;;;;;5050314;28;20186;-62
2023/04/17 04:41:25;;;;;;;2.35;2.17;;;20.30;70.60;;;;;;5052492;28;20192;-61
2023/04/17 04:43:52;;;;;;;2.40;2.20;;;20.30;70.60;;;;;;5055070;28;20220;-61
2023/04/17 04:46:18;;;;;;;2.15;2.03;;;20.30;70.50;;;;;;5049995;28;20675;-61
2023/04/17 04:48:45;;;;;;;2.95;2.17;;;20.30;70.50;;;;;;5055977;28;23427;-61
2023/04/17 04:51:12;;;;;;;2.38;2.17;;;20.30;70.60;;;;;;5052484;28;20738;-61
2023/04/17 04:53:40;;;;;;;2.25;2.00;;;20.30;70.50;;;;;;5060414;28;20192;-62
2023/04/17 04:56:07;;;;;;;2.30;2.10;;;20.30;70.40;;;;;;5061298;28;20462;-62
2023/04/17 04:58:34;;;;;;;2.55;2.00;;;20.30;70.40;;;;;;5048324;28;20200;-61
2023/04/17 05:01:00;;;;;;;2.03;1.90;;;20.30;70.60;;;;;;5057717;28;20201;-61
2023/04/17 05:03:27;;;;;;;2.28;2.08;;;20.30;70.40;;;;;;5056113;28;20556;-62
2023/04/17 05:05:54;;;;;;;2.45;2.25;;;20.30;70.40;;;;;;5048801;28;20198;-62
2023/04/17 05:08:21;;;;;;;2.22;2.03;;;20.30;70.40;;;;;;5052869;28;20705;-61
2023/04/17 05:10:49;;;;;;;1.98;1.88;;;20.30;70.50;;;;;;5054673;28;20599;-62
2023/04/17 05:13:15;;;;;;;1.90;1.80;;;20.30;70.40;;;;;;5053507;28;20192;-61
2023/04/17 05:15:42;;;;;;;1.90;1.70;;;20.30;70.40;;;;;;5047909;28;20200;-61
2023/04/17 05:18:09;;;;;;;2.00;1.88;;;20.20;70.30;;;;;;5054538;28;20202;-62
2023/04/17 05:20:36;;;;;;;2.15;1.95;;;20.30;70.60;;;;;;5055743;28;20666;-61
2023/04/17 05:23:03;;;;;;;2.50;2.30;;;20.30;70.40;;;;;;5058250;28;20219;-62
2023/04/17 05:25:29;;;;;;;2.50;2.30;;;20.30;70.50;;;;;;5053314;28;20226;-59
2023/04/17 05:27:57;;;;;;;2.47;2.28;;;20.30;70.40;;;;;;5053267;28;20252;-62
2023/04/17 05:30:24;;;;;;;2.25;2.05;;;20.30;70.30;;;;;;5049346;28;20195;-61
2023/04/17 05:32:52;;;;;;;1.95;1.85;;;20.40;70.40;;;;;;5059624;28;20240;-62
2023/04/17 05:35:19;;;;;;;1.90;1.80;;;20.40;70.30;;;;;;5058777;28;20198;-61
2023/04/17 05:37:46;;;;;;;2.58;2.35;;;20.40;70.30;;;;;;5050690;28;20195;-62
2023/04/17 05:40:12;;;;;;;1.80;1.70;;;20.40;70.30;;;;;;5060637;28;20659;-62
2023/04/17 05:42:39;;;;;;;2.05;1.95;;;20.40;70.30;;;;;;5056369;28;20211;-61
2023/04/17 05:45:12;;;;;;;2.05;1.95;;;20.40;70.30;;;;;;5048380;28;20599;-61
2023/04/17 05:47:38;;;;;;;2.42;2.22;;;20.40;70.30;;;;;;5063357;28;20195;-62
2023/04/17 05:50:06;;;;;;;1.77;1.67;;;20.40;70.30;;;;;;5050678;28;20199;-62
2023/04/17 05:52:33;;;;;;;1.95;1.77;;;20.40;70.30;;;;;;5055156;28;20203;-62
2023/04/17 05:55:00;;;;;;;1.88;1.77;;;20.40;70.30;;;;;;5061729;28;20621;-61
2023/04/17 05:57:26;;;;;;;2.53;2.33;;;20.40;70.30;;;;;;5061964;28;20218;-60
2023/04/17 05:59:53;;;;;;;2.45;2.25;;;20.40;70.20;;;;;;5050052;28;20191;-61
2023/04/17 06:02:21;;;;;;;2.78;2.08;;;20.40;70.10;;;;;;5061240;28;20186;-60
2023/04/17 06:04:48;;;;;;;1.80;1.70;;;20.50;70.30;;;;;;5061385;28;20218;-60
2023/04/17 06:07:15;;;;;;;2.00;1.90;;;20.50;70.20;;;;;;5050723;28;20248;-61
2023/04/17 06:09:41;;;;;;;2.00;1.80;;;20.50;70.20;;;;;;5064553;28;20283;-61
2023/04/17 06:12:14;;;;;;;2.15;1.83;;;20.50;70.10;;;;;;5061617;28;20203;-60
2023/04/17 06:14:41;;;;;;;1.80;1.70;;;20.50;70.10;;;;;;5054879;28;20255;-62
2023/04/17 06:17:08;;;;;;;1.75;1.65;;;20.50;70.10;;;;;;5052965;28;20195;-61
2023/04/17 06:19:36;;;;;;;1.65;1.55;;;20.50;70.00;;;;;;5051195;28;20219;-61
2023/04/17 06:22:03;;;;;;;1.75;1.55;;;20.60;70.20;;;;;;5055032;28;20218;-62
2023/04/17 06:24:29;;;;;;;1.90;1.70;;;20.60;70.10;;;;;;5063737;28;20226;-61
2023/04/17 06:26:56;;;;;;;5.43;2.13;;;20.60;70.10;;;;;;5052508;28;20202;-61
2023/04/17 06:29:23;;;;;;;2.08;1.98;;;20.60;70.20;;;;;;5056700;28;20273;-61
2023/04/17 06:31:50;;;;;;;7.50;1.80;;;20.60;70.20;;;;;;5065850;28;20194;-61
2023/04/17 06:34:16;;;;;;;1.77;1.67;;;20.60;70.30;;;;;;5052825;28;20203;-61
2023/04/17 06:36:44;;;;;;;1.58;1.48;;;20.60;70.20;;;;;;5058094;28;20199;-60
2023/04/17 06:39:11;;;;;;;2.42;2.00;;;20.60;70.10;;;;;;5056247;28;20277;-60
2023/04/17 06:41:38;;;;;;;12.45;2.30;;;20.70;70.70;;;;;;5059576;28;20195;-60
2023/04/17 06:44:05;;;;;;;9.52;2.38;;;20.80;70.70;;;;;;5056619;28;20214;-62
2023/04/17 06:46:31;;;;;;;1.77;1.67;;;20.80;71.60;;;;;;5054755;28;20698;-60
2023/04/17 06:48:58;;;;;;;4.63;1.60;;;20.80;70.80;;;;;;5066072;28;20206;-58
2023/04/17 06:51:26;;;;;;;2.13;1.92;;;20.80;70.90;;;;;;5054877;28;20200;-63
2023/04/17 06:53:54;;;;;;;2.00;1.77;;;20.80;71.00;;;;;;5057624;28;20210;-62
2023/04/17 06:56:23;;;;;;;2.15;1.95;;;20.90;71.10;;;;;;5053656;28;20257;-64
2023/04/17 06:58:49;;;;;;;2.20;2.00;;;20.90;71.10;;;;;;5054761;28;20723;-61
2023/04/17 07:01:16;;;;;;;1.73;1.63;;;20.90;71.10;;;;;;5056805;28;20199;-64
2023/04/17 07:03:43;;;;;;;1.80;1.65;;;20.90;71.20;;;;;;5058851;28;20251;-58
2023/04/17 07:06:10;;;;;;;2.13;1.95;;;20.90;71.20;;;;;;5057673;28;20218;-60
2023/04/17 07:08:36;;;;;;;2.45;1.88;;;20.90;71.40;;;;;;5063276;28;20203;-60
2023/04/17 07:11:04;;;;;;;3.83;1.75;;;20.90;71.70;;;;;;5061873;28;20203;-59
2023/04/17 07:13:31;;;;;;;1.92;1.73;;;21.00;72.20;;;;;;5050370;28;20212;-60
2023/04/17 07:15:59;;;;;;;1.73;1.63;;;21.00;72.50;;;;;;5060463;28;20209;-60
2023/04/17 07:18:28;;;;;;;2.85;1.58;;;21.00;72.50;;;;;;5055683;28;20202;-59
2023/04/17 07:20:55;;;;;;;2.38;1.50;;;21.00;72.70;;;;;;5049719;28;20674;-61
2023/04/17 07:23:22;;;;;;;2.10;1.90;;;21.10;73.00;;;;;;5061647;28;20222;-58
2023/04/17 07:25:48;;;;;;;2.30;2.10;;;21.10;73.10;;;;;;5057233;28;20230;-60
2023/04/17 07:28:16;;;;;;;1.85;1.50;;;21.10;73.90;;;;;;5051716;28;20594;-59
2023/04/17 07:30:43;;;;;;;6.28;1.55;;;21.10;73.20;;;;;;5047986;28;20196;-59
2023/04/17 07:33:10;;;;;;;2.33;1.60;;;21.20;73.30;;;;;;5056945;28;20195;-53
2023/04/17 07:35:36;;;;;;;2.17;1.77;;;21.20;73.40;;;;;;5054754;28;20667;-56
2023/04/17 07:38:03;;;;;;;1.98;1.77;;;21.20;73.60;;;;;;5054840;28;20198;-59
2023/04/17 07:40:32;;;;;;;1.70;1.60;;;21.20;73.40;;;;;;5058309;28;20299;-57
2023/04/17 07:42:58;;;;;;;1.85;1.75;;;21.30;73.50;;;;;;5051381;28;20219;-51
2023/04/17 07:45:27;;;;;;;8.20;2.20;;;21.30;73.50;;;;;;5048688;28;20222;-53
2023/04/17 07:47:54;;;;;;;2.80;2.20;;;21.30;73.60;;;;;;5053480;28;20219;-60
2023/04/17 07:50:21;;;;;;;4.97;2.00;;;21.30;73.70;;;;;;5067517;28;20225;-57
2023/04/17 07:52:47;;;;;;;5.60;2.63;;;21.30;74.70;;;;;;5054165;28;20523;-61
2023/04/17 07:55:15;;;;;;;3.20;2.90;;;21.30;74.90;;;;;;5063904;28;20204;-61
2023/04/17 07:57:42;;;;;;;2.30;1.90;;;21.30;74.00;;;;;;5060942;28;20197;-59
2023/04/17 08:00:09;;;;;;;1.90;1.80;;;21.30;73.90;;;;;;5049323;28;20473;-57
2023/04/17 08:02:37;;;;;;;2.10;1.95;;;21.40;73.80;;;;;;5054098;28;20218;-59
2023/04/17 08:05:05;;;;;;;2.37;2.17;;;21.40;73.60;;;;;;5057028;28;20222;-60
2023/04/17 08:07:32;;;;;;;2.70;2.30;;;21.40;73.40;;;;;;5047375;28;20466;-60
2023/04/17 08:09:59;;;;;;;2.35;1.70;;;21.40;73.20;;;;;;5047910;28;20728;-60
2023/04/17 08:12:25;;;;;;;1.85;1.75;;;21.40;73.10;;;;;;5049654;28;20195;-60
2023/04/17 08:14:52;;;;;;;2.42;2.13;;;21.40;73.00;;;;;;5046104;28;20205;-59
2023/04/17 08:17:22;;;;;;;2.17;1.98;;;21.40;72.90;;;;;;5052693;28;20280;-60
2023/04/17 08:19:52;;;;;;;4.47;2.13;;;21.40;73.60;;;;;;5049883;28;20666;-60
2023/04/17 08:22:20;;;;;;;2.83;2.33;;;21.40;72.60;;;;;;5056636;28;20699;-61
2023/04/17 08:24:47;;;;;;;2.45;2.25;;;21.40;72.50;;;;;;5058741;28;20230;-60
2023/04/17 08:27:14;;;;;;;1.67;1.58;;;21.50;72.60;;;;;;5048354;28;20245;-63
2023/04/17 08:29:41;;;;;;;1.92;1.83;;;21.50;72.50;;;;;;5049707;28;20271;-61
2023/04/17 08:32:08;;;;;;;2.33;1.83;;;21.50;72.30;;;;;;5053641;28;20195;-62
2023/04/17 08:34:36;;;;;;;2.35;2.13;;;21.50;72.30;;;;;;5055222;28;20826;-63
2023/04/17 08:37:05;;;;;;;2.25;2.05;;;21.50;72.10;;;;;;5047986;28;20195;-61
2023/04/17 08:39:31;;;;;;;2.22;2.00;;;21.50;72.00;;;;;;5053256;28;20206;-63
2023/04/17 08:42:00;;;;;;;1.87;1.73;;;21.50;71.90;;;;;;5045217;28;20618;-61
2023/04/17 08:44:27;;;;;;;3.00;2.10;;;21.50;71.80;;;;;;5048359;28;20838;-62
2023/04/17 08:46:56;;;;;;;2.55;2.15;;;21.50;71.70;;;;;;5053114;28;20465;-60
2023/04/17 08:49:24;;;;;;;2.47;2.20;;;21.50;71.60;;;;;;5048629;28;20754;-62
2023/04/17 08:51:51;;;;;;;2.20;2.00;;;21.50;72.50;;;;;;5048469;28;20191;-59
2023/04/17 08:54:20;;;;;;;2.90;2.40;;;21.50;71.60;;;;;;5057703;28;20462;-58
2023/04/17 08:56:47;;;;;;;2.20;1.80;;;21.60;71.60;;;;;;5061245;28;20848;-60
2023/04/17 08:59:14;;;;;;;3.47;2.00;;;21.50;71.40;;;;;;5049991;28;20199;-60
2023/04/17 09:01:59;;;;;;;1.85;1.75;;;21.60;71.60;;;;;;5050942;28;20191;-61
2023/04/17 09:04:35;;;;;;;4.07;2.20;;;21.60;71.70;;;;;;5048252;28;20195;-62
2023/04/17 09:07:03;;;;;;;2.60;2.40;;;21.60;71.80;;;;;;5040842;28;20199;-63
2023/04/17 09:09:47;;;;;;;1.90;1.80;;;21.60;71.70;;;;;;5045076;28;20868;-61
2023/04/17 09:12:13;;;;;;;2.17;1.92;;;21.60;71.80;;;;;;5048879;28;20596;-62
2023/04/17 09:14:40;;;;;;;2.30;2.10;;;21.60;71.90;;;;;;5043866;28;20203;-60
2023/04/17 09:17:07;;;;;;;2.20;2.00;;;21.60;71.90;;;;;;5051296;28;20237;-61
2023/04/17 09:19:34;;;;;;;2.80;2.30;;;21.60;71.70;;;;;;5054416;28;20461;-63
2023/04/17 09:22:18;;;;;;;3.05;2.10;;;21.60;71.70;;;;;;5054080;28;21509;-62
2023/04/17 09:24:47;;;;;;;2.10;1.90;;;21.70;71.90;;;;;;5046546;28;20694;-64
2023/04/17 09:27:21;;;;;;;2.55;2.35;;;21.70;71.80;;;;;;5039568;28;20201;-65
2023/04/17 09:29:56;;;;;;;2.37;2.17;;;21.70;71.80;;;;;;5038796;28;20187;-63
2023/04/17 09:32:22;;;;;;;4.77;3.50;;;21.70;72.10;;;;;;5050126;28;20510;-65
2023/04/17 09:34:50;;;;;;;2.57;2.30;;;21.70;72.20;;;;;;5056494;28;20522;-64
2023/04/17 09:37:16;;;;;;;2.83;2.20;;;21.70;72.30;;;;;;5042766;28;20531;-63
2023/04/17 09:39:57;;;;;;;3.43;2.40;;;21.70;72.30;;;;;;5057976;28;20526;-61
2023/04/17 09:42:25;;;;;;;3.90;2.13;;;21.80;72.50;;;;;;5038966;28;20877;-62
2023/04/17 09:44:51;;;;;;;5.00;1.87;;;21.80;72.50;;;;;;5041970;28;20508;-55
2023/04/17 09:47:18;;;;;;;2.63;2.10;;;21.80;72.50;;;;;;5055812;28;20450;-56
2023/04/17 09:49:48;;;;;;;3.13;1.80;;;21.90;72.40;;;;;;5047224;28;20548;-54
2023/04/17 09:52:15;;;;;;;2.93;2.00;;;21.90;72.50;;;;;;5041611;28;20839;-55
2023/04/17 09:54:45;;;;;;;2.60;1.90;;;21.90;72.50;;;;;;5053071;28;20457;-60
2023/04/17 09:57:13;;;;;;;3.30;2.50;;;21.90;72.30;;;;;;5053760;28;20934;-60
2023/04/17 09:59:40;;;;;;;2.20;2.00;;;21.90;72.30;;;;;;5044606;28;20462;-56
2023/04/17 10:02:08;;;;;;;1.83;1.67;;;22.00;72.40;;;;;;5056542;28;20248;-57
2023/04/17 10:04:36;;;;;;;2.63;1.83;;;22.00;72.40;;;;;;5059786;28;20544;-60
2023/04/17 10:07:03;;;;;;;2.45;2.13;;;22.00;72.30;;;;;;5061040;28;20481;-64
2023/04/17 10:09:30;;;;;;;2.00;1.90;;;22.00;72.30;;;;;;5057901;28;20206;-64
2023/04/17 10:11:58;;;;;;;2.20;2.00;;;22.00;72.30;;;;;;5051171;28;20983;-63
2023/04/17 10:14:28;;;;;;;1.60;1.50;;;22.00;72.20;;;;;;5053140;28;21180;-63
2023/04/17 10:16:54;;;;;;;2.67;2.47;;;22.00;72.20;;;;;;5052163;28;20457;-63
2023/04/17 10:19:29;;;;;;;1.87;1.40;;;22.10;72.30;;;;;;5057266;28;20461;-63
2023/04/17 10:22:31;;;;;;;2.03;1.87;;;22.00;72.20;;;;;;5058590;28;20620;-64
2023/04/17 10:25:17;;;;;;;2.17;1.97;;;22.10;72.20;;;;;;5058632;28;20449;-59
2023/04/17 10:27:45;;;;;;;1.90;1.80;;;22.10;72.00;;;;;;5053568;28;20511;-62
2023/04/17 10:30:14;;;;;;;2.07;1.77;;;22.10;72.00;;;;;;5056332;28;20476;-62
2023/04/17 10:32:42;;;;;;;3.00;1.77;;;22.10;71.90;;;;;;5050763;28;20445;-61
2023/04/17 10:35:35;;;;;;;3.07;2.20;;;22.10;71.90;;;;;;5063224;28;20465;-60
2023/04/17 10:38:04;;;;;;;1.77;1.67;;;22.20;72.00;;;;;;5053726;28;21005;-59
2023/04/17 10:40:32;;;;;;;2.50;2.17;;;22.20;71.90;;;;;;5063676;28;20464;-56
2023/04/17 10:43:04;;;;;;;1.83;1.73;;;22.20;71.90;;;;;;5057050;28;20471;-59
2023/04/17 10:45:54;;;;;;;1.83;1.63;;;22.20;71.90;;;;;;5060243;28;20480;-64
2023/04/17 10:48:22;;;;;;;2.80;2.07;;;22.20;71.80;;;;;;5064636;28;20453;-61
2023/04/17 10:50:49;;;;;;;2.10;1.90;;;22.20;71.80;;;;;;5063325;28;20464;-64
2023/04/17 10:53:38;;;;;;;2.67;1.97;;;22.20;71.70;;;;;;5057028;28;20542;-62
2023/04/17 10:56:05;;;;;;;2.60;2.07;;;22.30;71.80;;;;;;5059090;28;20540;-62
2023/04/17 10:58:32;;;;;;;4.47;1.63;;;22.30;71.80;;;;;;5057367;28;20469;-63
2023/04/17 11:01:03;;;;;;;1.77;1.50;;;22.30;71.70;;;;;;5061612;28;20554;-63
2023/04/17 11:03:30;;;;;;;2.07;1.87;;;22.30;71.70;;;;;;5058552;28;20983;-62
2023/04/17 11:05:59;;;;;;;3.40;3.10;;;22.30;71.70;;;;;;5058885;28;20484;-63
2023/04/17 11:08:26;;;;;;;6.73;3.80;;;22.30;70.10;;;;;;5056142;28;20465;-60
2023/04/17 11:10:53;;;;;;;8.20;4.03;;;22.20;67.50;;;;;;5056514;28;20504;-63
2023/04/17 11:13:20;;;;;;;6.97;4.20;;;22.20;66.00;;;;;;5052911;28;20460;-67
2023/04/17 11:15:47;;;;;;;4.60;4.20;;;22.10;65.20;;;;;;5051886;28;20910;-64
2023/04/17 11:18:15;;;;;;;6.07;5.57;;;22.00;63.40;;;;;;5055961;28;20988;-61
2023/04/17 11:20:42;;;;;;;5.57;5.07;;;22.00;62.10;;;;;;5059528;28;20461;-64
2023/04/17 11:23:09;;;;;;;5.90;4.93;;;22.00;61.90;;;;;;5061948;28;20519;-64
2023/04/17 11:25:36;;;;;;;6.00;5.53;;;21.90;60.70;;;;;;5058476;28;20489;-62
2023/04/17 11:28:05;;;;;;;6.07;5.47;;;21.90;60.60;;;;;;5057800;28;20458;-61
2023/04/17 11:30:33;;;;;;;6.37;5.70;;;21.90;60.40;;;;;;5049103;28;20563;-55
2023/04/17 11:33:01;;;;;;;8.93;5.87;;;21.90;59.80;;;;;;5056040;28;20473;-51
2023/04/17 11:35:31;;;;;;;6.77;6.17;;;21.80;58.80;;;;;;5056461;28;20534;-63
2023/04/17 11:38:10;;;;;;;6.37;5.77;;;21.80;58.00;;;;;;5056511;28;20462;-62
2023/04/17 11:40:36;;;;;;;5.60;4.73;;;21.80;57.80;;;;;;5060756;28;20964;-58
2023/04/17 11:43:06;;;;;;;5.83;5.33;;;21.80;58.40;;;;;;5052159;28;20485;-57
2023/04/17 11:45:34;;;;;;;5.63;5.13;;;21.80;57.80;;;;;;5050148;28;20542;-62
2023/04/17 11:48:01;;;;;;;5.83;5.33;;;21.80;58.10;;;;;;5058012;28;20448;-60
2023/04/17 11:50:30;;;;;;;7.27;6.00;;;21.80;57.90;;;;;;5059189;28;20489;-60
2023/04/17 11:52:58;;;;;;;6.43;5.87;;;21.80;57.40;;;;;;5051173;28;20456;-66
2023/04/17 11:55:29;;;;;;;5.90;5.40;;;21.70;57.10;;;;;;5061940;28;20536;-51
2023/04/17 11:57:56;;;;;;;7.60;5.90;;;21.70;57.00;;;;;;5057223;28;20479;-58
2023/04/17 12:00:27;;;;;;;8.97;5.70;;;21.70;56.80;;;;;;5054828;28;20518;-59
2023/04/17 12:02:54;;;;;;;7.00;6.17;;;21.70;56.30;;;;;;5059856;28;20458;-61
2023/04/17 12:05:21;;;;;;;6.37;5.07;;;21.60;56.20;;;;;;5049346;28;20727;-67
2023/04/17 12:07:59;;;;;;;11.60;7.20;;;21.60;55.30;;;;;;5056445;28;20547;-63
2023/04/17 12:10:39;;;;;;;7.10;6.50;;;21.60;55.80;;;;;;5056584;28;20450;-57
2023/04/17 12:13:06;;;;;;;9.70;5.40;;;21.60;55.60;;;;;;5050795;28;20460;-63
2023/04/17 12:15:34;;;;;;;7.65;5.82;;;21.50;54.60;;;;;;5052865;28;20471;-63
2023/04/17 12:18:04;;;;;;;7.70;5.57;;;21.50;54.90;;;;;;5057339;28;20198;-66
2023/04/17 12:20:31;;;;;;;5.57;5.07;;;21.50;54.50;;;;;;5048801;28;20973;-66
2023/04/17 12:22:59;;;;;;;7.30;5.53;;;21.50;55.80;;;;;;5051615;28;20492;-65
2023/04/17 12:25:26;;;;;;;5.97;4.43;;;21.60;55.90;;;;;;5053465;28;20538;-67
2023/04/17 12:27:52;;;;;;;6.00;5.50;;;21.60;55.80;;;;;;5052100;28;21062;-67
2023/04/17 12:30:19;;;;;;;4.90;4.23;;;21.70;56.10;;;;;;5047845;28;20725;-65
2023/04/17 12:32:47;;;;;;;5.27;4.80;;;21.70;56.40;;;;;;5053265;28;20946;-64
2023/04/17 12:35:14;;;;;;;7.57;5.20;;;21.70;56.50;;;;;;5057482;28;20536;-62
2023/04/17 12:37:41;;;;;;;6.50;4.40;;;21.70;57.00;;;;;;5066487;28;20934;-65
2023/04/17 12:40:10;;;;;;;4.93;4.53;;;21.70;57.00;;;;;;5058749;28;20453;-61
2023/04/17 12:42:37;;;;;;;4.72;4.22;;;21.70;57.90;;;;;;5056272;28;20198;-63
2023/04/17 12:45:05;;;;;;;4.45;3.95;;;21.70;57.60;;;;;;5055918;28;20191;-64
2023/04/17 12:47:32;;;;;;;4.00;3.70;;;21.80;58.10;;;;;;5047317;28;20248;-61
2023/04/17 12:49:58;;;;;;;4.13;3.73;;;21.80;58.60;;;;;;5055336;28;20468;-62
2023/04/17 12:52:25;;;;;;;3.97;3.67;;;21.90;58.70;;;;;;5053233;28;21983;-62